createdAt,value
2019-05-07T14:06:55.944Z,100485.16
2019-05-07T14:09:42.050Z,100495.20
2019-05-07T14:15:22.999Z,100519.52
2019-05-07T14:17:56.078Z,100509.40
2019-05-07T14:20:33.653Z,100507.59
2019-05-07T14:23:08.067Z,100508.79
2019-05-07T14:25:44.446Z,100503.96
2019-05-07T14:28:18.887Z,100509.91
2019-05-07T14:30:54.968Z,100510.69
2019-05-07T14:33:30.453Z,100509.47
2019-05-07T14:36:24.798Z,100508.53
2019-05-07T14:38:58.274Z,100501.97
2019-05-07T14:41:32.533Z,100514.52
2019-05-07T14:44:12.096Z,100513.05
2019-05-07T14:46:50.276Z,100518.02
2019-05-07T14:49:17.343Z,100521.34
2019-05-07T14:51:59.873Z,100523.28
2019-05-07T14:54:34.121Z,100524.19
2019-05-07T14:57:15.098Z,100513.92
2019-05-07T14:59:48.713Z,100523.02
2019-05-07T15:02:25.281Z,100509.22
2019-05-07T15:04:58.284Z,100516.46
2019-05-07T15:07:32.705Z,100519.01
2019-05-07T15:10:07.231Z,100518.66
2019-05-07T15:12:49.076Z,100516.20
2019-05-07T15:15:22.084Z,100520.35
2019-05-07T15:17:56.510Z,100518.67
2019-05-07T15:20:41.913Z,100517.55
2019-05-07T15:23:38.454Z,100511.25
2019-05-07T15:26:21.977Z,100514.97
2019-05-07T15:28:55.910Z,100512.34
2019-05-07T15:31:36.134Z,100510.86
2019-05-07T15:34:12.252Z,100508.53
2019-05-07T15:36:56.659Z,100509.09
2019-05-07T15:39:39.449Z,100507.72
2019-05-07T15:42:17.988Z,100513.58
2019-05-07T15:44:52.866Z,100501.84
2019-05-07T15:47:27.671Z,100510.95
2019-05-07T15:50:00.269Z,100506.94
2019-05-07T15:52:34.661Z,100514.70
2019-05-07T15:55:08.030Z,100514.56
2019-05-07T15:57:42.679Z,100517.07
2019-05-07T16:00:17.408Z,100515.55
2019-05-07T16:02:53.770Z,100515.52
2019-05-07T16:05:27.666Z,100517.33
2019-05-07T16:08:06.108Z,100520.51
2019-05-07T16:10:39.713Z,100511.46
2019-05-07T16:13:15.475Z,100517.63
2019-05-07T16:15:47.540Z,100519.78
2019-05-07T16:18:23.622Z,100528.55
2019-05-07T16:20:54.712Z,100525.05
2019-05-07T16:23:27.639Z,100528.84
2019-05-07T16:26:02.469Z,100525.04
2019-05-07T16:28:35.366Z,100525.83
2019-05-07T16:31:09.319Z,100533.62
2019-05-07T16:33:43.087Z,100531.59
2019-05-07T16:36:18.734Z,100523.06
2019-05-07T16:38:52.872Z,100523.66
2019-05-07T16:41:25.916Z,100517.75
2019-05-07T16:43:58.454Z,100513.47
2019-05-07T16:46:31.540Z,100513.70
2019-05-07T16:49:04.822Z,100514.65
2019-05-07T16:51:41.917Z,100513.36
2019-05-07T16:54:16.193Z,100506.32
2019-05-07T16:56:52.147Z,100501.39
2019-05-07T16:59:27.440Z,100497.44
2019-05-07T17:02:04.678Z,100495.33
2019-05-07T17:04:37.799Z,100491.05
2019-05-07T17:07:13.342Z,100483.34
2019-05-07T17:09:58.997Z,100488.25
2019-05-07T17:12:47.074Z,100475.53
2019-05-07T17:15:46.819Z,100472.55
2019-05-07T17:18:14.906Z,100458.37
2019-05-07T17:20:47.774Z,100462.08
2019-05-07T17:23:42.854Z,100453.32
2019-05-07T17:26:16.082Z,100455.48
2019-05-07T17:28:52.076Z,100453.40
2019-05-07T17:31:26.899Z,100451.16
2019-05-07T17:34:07.222Z,100451.16
2019-05-07T17:36:42.050Z,100448.27
2019-05-07T17:39:14.106Z,100442.97
2019-05-07T17:41:47.362Z,100441.84
2019-05-07T17:44:20.015Z,100439.98
2019-05-07T17:46:53.334Z,100432.75
2019-05-07T17:49:27.424Z,100428.31
2019-05-07T17:52:02.828Z,100431.14
2019-05-07T17:54:35.497Z,100426.53
2019-05-07T17:57:08.831Z,100426.11
2019-05-07T17:59:42.225Z,100419.47
2019-05-07T18:02:14.862Z,100416.89
2019-05-07T18:04:51.541Z,100406.11
2019-05-07T18:07:23.101Z,100406.33
2019-05-07T18:09:58.299Z,100400.68
2019-05-07T18:12:32.091Z,100403.01
2019-05-07T18:15:05.056Z,100396.67
2019-05-07T18:17:38.810Z,100397.97
2019-05-07T18:20:12.856Z,100394.95
2019-05-07T18:22:45.656Z,100387.45
2019-05-07T18:25:18.559Z,100386.07
2019-05-07T18:27:52.717Z,100380.69
2019-05-07T18:30:26.275Z,100380.81
2019-05-07T18:33:02.424Z,100375.85
2019-05-07T18:35:34.366Z,100371.45
2019-05-07T18:38:15.303Z,100368.73
2019-05-07T18:40:49.255Z,100366.46
2019-05-07T18:43:22.691Z,100361.54
2019-05-07T18:45:56.589Z,100357.06
2019-05-07T18:48:29.431Z,100353.27
2019-05-07T18:51:02.892Z,100349.52
2019-05-07T18:53:36.104Z,100346.98
2019-05-07T18:56:09.184Z,100341.24
2019-05-07T18:58:42.880Z,100342.63
2019-05-07T19:01:16.914Z,100344.44
2019-05-07T19:03:52.544Z,100339.69
2019-05-07T19:06:26.257Z,100334.22
2019-05-07T19:08:59.345Z,100336.08
2019-05-07T19:11:32.711Z,100328.95
2019-05-07T19:14:06.661Z,100324.27
2019-05-07T19:16:47.365Z,100326.29
2019-05-07T19:19:22.152Z,100321.16
2019-05-07T19:21:55.191Z,100327.94
2019-05-07T19:24:42.234Z,100325.52
2019-05-07T19:27:02.873Z,100322.20
2019-05-07T19:29:35.158Z,100322.28
2019-05-07T19:32:09.455Z,100316.30
2019-05-07T19:34:42.854Z,100317.45
2019-05-07T19:37:15.682Z,100316.98
2019-05-07T19:39:48.799Z,100312.41
2019-05-07T19:42:23.831Z,100307.76
2019-05-07T19:44:56.924Z,100309.87
2019-05-07T19:47:29.613Z,100308.02
2019-05-07T19:50:02.486Z,100306.86
2019-05-07T19:52:35.786Z,100310.99
2019-05-07T19:55:09.846Z,100296.08
2019-05-07T19:57:44.632Z,100294.23
2019-05-07T20:00:19.305Z,100290.27
2019-05-07T20:02:57.460Z,100294.06
2019-05-07T20:05:32.345Z,100288.80
2019-05-07T20:08:04.868Z,100288.67
2019-05-07T20:10:38.820Z,100293.23
2019-05-07T20:13:12.626Z,100296.47
2019-05-07T20:15:47.375Z,100301.51
2019-05-07T20:18:22.001Z,100301.08
2019-05-07T20:20:54.842Z,100299.79
2019-05-07T20:23:28.223Z,100305.22
2019-05-07T20:26:04.104Z,100307.03
2019-05-07T20:28:36.765Z,100314.59
2019-05-07T20:31:11.648Z,100312.93
2019-05-07T20:33:43.990Z,100310.60
2019-05-07T20:36:18.153Z,100322.78
2019-05-07T20:38:52.108Z,100322.95
2019-05-07T20:41:28.621Z,100324.47
2019-05-07T20:44:03.004Z,100322.17
2019-05-07T20:46:36.348Z,100324.59
2019-05-07T20:49:10.133Z,100323.38
2019-05-07T20:51:42.915Z,100327.22
2019-05-07T20:54:18.091Z,100323.63
2019-05-07T20:56:54.241Z,100327.68
2019-05-07T20:59:32.714Z,100326.86
2019-05-07T21:02:05.700Z,100331.56
2019-05-07T21:04:38.089Z,100330.05
2019-05-07T21:07:11.850Z,100326.47
2019-05-07T21:09:46.648Z,100335.78
2019-05-07T21:12:22.488Z,100331.20
2019-05-07T21:14:55.039Z,100333.36
2019-05-07T21:17:28.158Z,100346.78
2019-05-07T21:20:02.212Z,100336.18
2019-05-07T21:22:34.847Z,100334.47
2019-05-07T21:25:11.889Z,100339.02
2019-05-07T21:27:45.514Z,100340.05
2019-05-07T21:30:22.308Z,100347.56
2019-05-07T21:32:54.744Z,100354.80
2019-05-07T21:35:29.059Z,100356.73
2019-05-07T21:38:03.021Z,100367.47
2019-05-07T21:40:42.851Z,100370.37
2019-05-07T21:43:21.862Z,100375.59
2019-05-07T21:45:54.531Z,100377.31
2019-05-07T21:48:29.764Z,100380.41
2019-05-07T21:51:02.754Z,100385.98
2019-05-07T21:53:37.528Z,100379.37
2019-05-07T21:56:13.648Z,100386.00
2019-05-07T21:58:48.160Z,100387.72
2019-05-07T22:01:23.282Z,100388.76
2019-05-07T22:03:57.184Z,100394.48
2019-05-07T22:06:30.709Z,100388.76
2019-05-07T22:09:03.012Z,100393.36
2019-05-07T22:11:36.854Z,100393.63
2019-05-07T22:14:12.736Z,100388.12
2019-05-07T22:16:45.701Z,100386.48
2019-05-07T22:19:18.586Z,100392.17
2019-05-07T22:21:52.322Z,100394.33
2019-05-07T22:24:29.635Z,100398.40
2019-05-07T22:27:04.276Z,100392.66
2019-05-07T22:29:36.822Z,100397.84
2019-05-07T22:32:11.874Z,100398.98
2019-05-07T22:34:47.249Z,100393.81
2019-05-07T22:37:22.136Z,100399.70
